Etusivu
METAR-TAF:

METAR-TAF

Lentoasemat :

Carroll, Iowa, Yhdysvallat

Leveyspiiri: 42-03N, Pituuspiiri: 094-47W, korkeus merenpinnasta: 375 m

Tämänhetkinen sää

Tämä raportti tehtiin 11 minuuttia sitten, kello 13.35 UTC
Tuuli 7 kn lounaasta puuskistuen 12 kn:hen
Lämpötila 16°C
Kosteus 100%
Ilmanpaine 1020 hPa
Näkyvyys: 12.9 km
Muutamia pilviä 5000 ft:n korkeudessa
Hajonneita pilviä 5500 ft:n korkeudessa
heikkoa sadetta

METAR: KCIN 051335Z AUTO 22007G12KT 8SM -RA FEW050 BKN055 16/16 A3011 RMK AO2

Aika: 08:46 (13:46 UTC)


TAF: puuttuu

Säähavainnot ja -ennusteet yli 4000 lentoasemalta (METAR- ja TAF-raportit).

Käytössä olevat sääasemat on merkitty karttaan keltaisilla ja punaisilla pisteillä.

Aseta hiiri pisteen päälle nähdäksesi sääaseman nimen.

Klikkaa sitten nähdäksesi säähavainnot ja -ennusteet.

Kartan vaihtaminen: klikkaa mustalla rastilla varustettuja vihreitä pisteitä, niin voit zoomata sisään; viivalla varustettua vihreää pistettä, niin voit zoomata ulos tai vihreitä nuolia, niin pääset viereisille kartoille.


METAR-TAF: